sensor_id;sensor_type;location;lat;lon;timestamp;temperature;humidity
7411;DHT22;3747;48.628;9.058;2022-12-18T00:01:41;-13.10;99.90
7411;DHT22;3747;48.628;9.058;2022-12-18T00:04:16;-13.20;99.90
7411;DHT22;3747;48.628;9.058;2022-12-18T00:06:44;-13.30;99.90
7411;DHT22;3747;48.628;9.058;2022-12-18T00:09:11;-13.40;99.90
7411;DHT22;3747;48.628;9.058;2022-12-18T00:11:38;-13.50;99.90
7411;DHT22;3747;48.628;9.058;2022-12-18T00:14:04;-13.50;99.90
7411;DHT22;3747;48.628;9.058;2022-12-18T00:16:33;-13.50;99.90
7411;DHT22;3747;48.628;9.058;2022-12-18T00:19:02;-13.60;99.90
7411;DHT22;3747;48.628;9.058;2022-12-18T00:21:31;-13.50;99.90
7411;DHT22;3747;48.628;9.058;2022-12-18T00:23:59;-13.50;99.90
7411;DHT22;3747;48.628;9.058;2022-12-18T00:26:28;-13.50;99.90
7411;DHT22;3747;48.628;9.058;2022-12-18T00:28:57;-13.50;99.90
7411;DHT22;3747;48.628;9.058;2022-12-18T00:31:25;-13.40;99.90
7411;DHT22;3747;48.628;9.058;2022-12-18T00:33:53;-13.30;99.90
7411;DHT22;3747;48.628;9.058;2022-12-18T00:36:23;-13.20;99.90
7411;DHT22;3747;48.628;9.058;2022-12-18T00:38:50;-13.10;99.90
7411;DHT22;3747;48.628;9.058;2022-12-18T00:41:18;-13.10;99.90
7411;DHT22;3747;48.628;9.058;2022-12-18T00:43:58;-13.20;99.90
7411;DHT22;3747;48.628;9.058;2022-12-18T00:46:25;-13.20;99.90
7411;DHT22;3747;48.628;9.058;2022-12-18T00:48:53;-13.20;99.90
7411;DHT22;3747;48.628;9.058;2022-12-18T00:51:20;-13.20;99.90
7411;DHT22;3747;48.628;9.058;2022-12-18T00:53:47;-13.20;99.90
7411;DHT22;3747;48.628;9.058;2022-12-18T00:56:14;-13.20;99.90
7411;DHT22;3747;48.628;9.058;2022-12-18T00:58:40;-13.20;99.90
7411;DHT22;3747;48.628;9.058;2022-12-18T01:01:07;-13.30;99.90
7411;DHT22;3747;48.628;9.058;2022-12-18T01:03:34;-13.30;99.90
7411;DHT22;3747;48.628;9.058;2022-12-18T01:06:07;-13.30;99.90
7411;DHT22;3747;48.628;9.058;2022-12-18T01:08:34;-13.20;99.90
7411;DHT22;3747;48.628;9.058;2022-12-18T01:11:01;-13.20;99.90
7411;DHT22;3747;48.628;9.058;2022-12-18T01:13:33;-13.30;99.90
7411;DHT22;3747;48.628;9.058;2022-12-18T01:15:59;-13.30;99.90
7411;DHT22;3747;48.628;9.058;2022-12-18T01:18:26;-13.40;99.90
7411;DHT22;3747;48.628;9.058;2022-12-18T01:20:53;-13.40;99.90
7411;DHT22;3747;48.628;9.058;2022-12-18T01:23:21;-13.30;99.90
7411;DHT22;3747;48.628;9.058;2022-12-18T01:25:48;-13.20;99.90
7411;DHT22;3747;48.628;9.058;2022-12-18T01:28:14;-13.00;99.90
7411;DHT22;3747;48.628;9.058;2022-12-18T01:30:41;-12.80;99.90
7411;DHT22;3747;48.628;9.058;2022-12-18T01:33:08;-12.60;99.90
7411;DHT22;3747;48.628;9.058;2022-12-18T01:35:40;-12.30;99.90
7411;DHT22;3747;48.628;9.058;2022-12-18T01:38:07;-12.00;99.90
7411;DHT22;3747;48.628;9.058;2022-12-18T01:40:35;-11.70;99.90
7411;DHT22;3747;48.628;9.058;2022-12-18T01:43:02;-11.50;99.90
7411;DHT22;3747;48.628;9.058;2022-12-18T01:45:29;-11.40;99.90
7411;DHT22;3747;48.628;9.058;2022-12-18T01:47:58;-11.50;99.90
7411;DHT22;3747;48.628;9.058;2022-12-18T01:50:30;-11.50;99.90
7411;DHT22;3747;48.628;9.058;2022-12-18T01:53:00;-11.40;99.90
7411;DHT22;3747;48.628;9.058;2022-12-18T01:55:30;-11.30;99.90
7411;DHT22;3747;48.628;9.058;2022-12-18T01:57:59;-11.10;99.90
7411;DHT22;3747;48.628;9.058;2022-12-18T02:00:27;-11.00;99.90
7411;DHT22;3747;48.628;9.058;2022-12-18T02:02:54;-11.10;99.90
7411;DHT22;3747;48.628;9.058;2022-12-18T02:05:29;-11.10;99.90
7411;DHT22;3747;48.628;9.058;2022-12-18T02:08:06;-11.10;99.90
7411;DHT22;3747;48.628;9.058;2022-12-18T02:10:41;-11.20;99.90
7411;DHT22;3747;48.628;9.058;2022-12-18T02:13:17;-11.20;99.90
7411;DHT22;3747;48.628;9.058;2022-12-18T02:15:53;-11.30;99.90
7411;DHT22;3747;48.628;9.058;2022-12-18T02:18:25;-11.30;99.90
7411;DHT22;3747;48.628;9.058;2022-12-18T02:20:56;-11.10;99.90
7411;DHT22;3747;48.628;9.058;2022-12-18T02:23:40;-11.10;99.90
7411;DHT22;3747;48.628;9.058;2022-12-18T02:26:18;-11.00;99.90
7411;DHT22;3747;48.628;9.058;2022-12-18T02:28:49;-11.10;99.90
7411;DHT22;3747;48.628;9.058;2022-12-18T02:31:21;-11.30;99.90
7411;DHT22;3747;48.628;9.058;2022-12-18T02:33:51;-11.50;99.90
7411;DHT22;3747;48.628;9.058;2022-12-18T02:36:20;-11.60;99.90
7411;DHT22;3747;48.628;9.058;2022-12-18T02:38:49;-11.60;99.90
7411;DHT22;3747;48.628;9.058;2022-12-18T02:41:18;-11.60;99.90
7411;DHT22;3747;48.628;9.058;2022-12-18T02:43:49;-11.70;99.90
7411;DHT22;3747;48.628;9.058;2022-12-18T02:46:31;-11.70;99.90
7411;DHT22;3747;48.628;9.058;2022-12-18T02:49:06;-11.60;99.90
7411;DHT22;3747;48.628;9.058;2022-12-18T02:51:43;-11.40;99.90
7411;DHT22;3747;48.628;9.058;2022-12-18T02:54:21;-11.50;99.90
7411;DHT22;3747;48.628;9.058;2022-12-18T02:56:54;-11.60;99.90
7411;DHT22;3747;48.628;9.058;2022-12-18T02:59:28;-11.60;99.90
7411;DHT22;3747;48.628;9.058;2022-12-18T03:02:00;-11.50;99.90
7411;DHT22;3747;48.628;9.058;2022-12-18T03:04:32;-11.40;99.90
7411;DHT22;3747;48.628;9.058;2022-12-18T03:07:07;-11.50;99.90
7411;DHT22;3747;48.628;9.058;2022-12-18T03:09:39;-11.60;99.90
7411;DHT22;3747;48.628;9.058;2022-12-18T03:12:14;-11.70;99.90
7411;DHT22;3747;48.628;9.058;2022-12-18T03:14:55;-11.80;99.90
7411;DHT22;3747;48.628;9.058;2022-12-18T03:17:27;-11.80;99.90
7411;DHT22;3747;48.628;9.058;2022-12-18T03:19:56;-11.80;99.90
7411;DHT22;3747;48.628;9.058;2022-12-18T03:22:27;-11.80;99.90
7411;DHT22;3747;48.628;9.058;2022-12-18T03:24:56;-11.90;99.90
7411;DHT22;3747;48.628;9.058;2022-12-18T03:27:27;-11.90;99.90
7411;DHT22;3747;48.628;9.058;2022-12-18T03:30:00;-11.90;99.90
7411;DHT22;3747;48.628;9.058;2022-12-18T03:32:35;-11.90;99.90
7411;DHT22;3747;48.628;9.058;2022-12-18T03:35:06;-11.70;99.90
7411;DHT22;3747;48.628;9.058;2022-12-18T03:37:33;-11.80;99.90
7411;DHT22;3747;48.628;9.058;2022-12-18T03:40:00;-11.90;99.90
7411;DHT22;3747;48.628;9.058;2022-12-18T03:42:32;-12.00;99.90
7411;DHT22;3747;48.628;9.058;2022-12-18T03:45:08;-11.90;99.90
7411;DHT22;3747;48.628;9.058;2022-12-18T03:47:39;-12.00;99.90
7411;DHT22;3747;48.628;9.058;2022-12-18T03:50:12;-12.10;99.90
7411;DHT22;3747;48.628;9.058;2022-12-18T03:52:46;-12.10;99.90
7411;DHT22;3747;48.628;9.058;2022-12-18T03:55:17;-12.30;99.90
7411;DHT22;3747;48.628;9.058;2022-12-18T03:57:46;-12.40;99.90
7411;DHT22;3747;48.628;9.058;2022-12-18T04:00:16;-12.40;99.90
7411;DHT22;3747;48.628;9.058;2022-12-18T04:02:46;-12.50;99.90
7411;DHT22;3747;48.628;9.058;2022-12-18T04:05:15;-12.60;99.90
7411;DHT22;3747;48.628;9.058;2022-12-18T04:07:44;-12.80;99.90
7411;DHT22;3747;48.628;9.058;2022-12-18T04:10:12;-13.10;99.90
7411;DHT22;3747;48.628;9.058;2022-12-18T04:12:40;-13.20;99.90
7411;DHT22;3747;48.628;9.058;2022-12-18T04:15:09;-13.30;99.90
7411;DHT22;3747;48.628;9.058;2022-12-18T04:17:36;-13.20;99.90
7411;DHT22;3747;48.628;9.058;2022-12-18T04:20:04;-13.20;99.90
7411;DHT22;3747;48.628;9.058;2022-12-18T04:22:31;-13.20;99.90
7411;DHT22;3747;48.628;9.058;2022-12-18T04:24:58;-13.30;99.90
7411;DHT22;3747;48.628;9.058;2022-12-18T04:27:24;-13.40;99.90
7411;DHT22;3747;48.628;9.058;2022-12-18T04:29:51;-13.10;99.90
7411;DHT22;3747;48.628;9.058;2022-12-18T04:32:19;-12.90;99.90
7411;DHT22;3747;48.628;9.058;2022-12-18T04:34:46;-12.60;99.90
7411;DHT22;3747;48.628;9.058;2022-12-18T04:37:13;-12.50;99.90
7411;DHT22;3747;48.628;9.058;2022-12-18T04:39:39;-12.20;99.90
7411;DHT22;3747;48.628;9.058;2022-12-18T04:42:06;-11.90;99.90
7411;DHT22;3747;48.628;9.058;2022-12-18T04:44:33;-11.80;99.90
7411;DHT22;3747;48.628;9.058;2022-12-18T04:47:00;-12.00;99.90
7411;DHT22;3747;48.628;9.058;2022-12-18T04:49:28;-12.30;99.90
7411;DHT22;3747;48.628;9.058;2022-12-18T04:51:54;-12.50;99.90
7411;DHT22;3747;48.628;9.058;2022-12-18T04:54:21;-12.70;99.90
7411;DHT22;3747;48.628;9.058;2022-12-18T04:56:48;-12.80;99.90
7411;DHT22;3747;48.628;9.058;2022-12-18T04:59:15;-13.00;99.90
7411;DHT22;3747;48.628;9.058;2022-12-18T05:01:42;-13.10;99.90
7411;DHT22;3747;48.628;9.058;2022-12-18T05:04:08;-13.20;99.90
7411;DHT22;3747;48.628;9.058;2022-12-18T05:06:36;-13.20;99.90
7411;DHT22;3747;48.628;9.058;2022-12-18T05:09:03;-13.00;99.90
7411;DHT22;3747;48.628;9.058;2022-12-18T05:11:30;-13.10;99.90
7411;DHT22;3747;48.628;9.058;2022-12-18T05:13:56;-13.20;99.90
7411;DHT22;3747;48.628;9.058;2022-12-18T05:16:23;-13.30;99.90
7411;DHT22;3747;48.628;9.058;2022-12-18T05:18:50;-13.50;99.90
7411;DHT22;3747;48.628;9.058;2022-12-18T05:21:17;-13.60;99.90
7411;DHT22;3747;48.628;9.058;2022-12-18T05:23:45;-13.80;99.90
7411;DHT22;3747;48.628;9.058;2022-12-18T05:26:16;-13.90;99.90
7411;DHT22;3747;48.628;9.058;2022-12-18T05:28:43;-14.00;99.90
7411;DHT22;3747;48.628;9.058;2022-12-18T05:31:10;-14.10;99.90
7411;DHT22;3747;48.628;9.058;2022-12-18T05:33:37;-14.10;99.90
7411;DHT22;3747;48.628;9.058;2022-12-18T05:36:06;-14.10;99.90
7411;DHT22;3747;48.628;9.058;2022-12-18T05:38:35;-14.00;99.90
7411;DHT22;3747;48.628;9.058;2022-12-18T05:41:04;-13.90;99.90
7411;DHT22;3747;48.628;9.058;2022-12-18T05:43:31;-13.90;99.90
7411;DHT22;3747;48.628;9.058;2022-12-18T05:46:03;-13.80;99.90
7411;DHT22;3747;48.628;9.058;2022-12-18T05:48:30;-13.80;99.90
7411;DHT22;3747;48.628;9.058;2022-12-18T05:51:04;-13.70;99.90
7411;DHT22;3747;48.628;9.058;2022-12-18T05:53:32;-13.80;99.90
7411;DHT22;3747;48.628;9.058;2022-12-18T05:56:00;-13.80;99.90
7411;DHT22;3747;48.628;9.058;2022-12-18T05:58:29;-13.90;99.90
7411;DHT22;3747;48.628;9.058;2022-12-18T06:00:56;-13.90;99.90
7411;DHT22;3747;48.628;9.058;2022-12-18T06:03:24;-13.90;99.90
7411;DHT22;3747;48.628;9.058;2022-12-18T06:05:50;-13.60;99.90
7411;DHT22;3747;48.628;9.058;2022-12-18T06:08:17;-13.40;99.90
7411;DHT22;3747;48.628;9.058;2022-12-18T06:10:50;-13.20;99.90
7411;DHT22;3747;48.628;9.058;2022-12-18T06:13:18;-13.10;99.90
7411;DHT22;3747;48.628;9.058;2022-12-18T06:15:46;-13.20;99.90
7411;DHT22;3747;48.628;9.058;2022-12-18T06:18:13;-13.30;99.90
7411;DHT22;3747;48.628;9.058;2022-12-18T06:20:39;-13.40;99.90
7411;DHT22;3747;48.628;9.058;2022-12-18T06:23:06;-13.40;99.90
7411;DHT22;3747;48.628;9.058;2022-12-18T06:25:36;-13.40;99.90
7411;DHT22;3747;48.628;9.058;2022-12-18T06:28:09;-13.60;99.90
7411;DHT22;3747;48.628;9.058;2022-12-18T06:30:35;-13.70;99.90
7411;DHT22;3747;48.628;9.058;2022-12-18T06:33:04;-13.80;99.90
7411;DHT22;3747;48.628;9.058;2022-12-18T06:35:31;-13.80;99.90
7411;DHT22;3747;48.628;9.058;2022-12-18T06:37:58;-13.80;99.90
7411;DHT22;3747;48.628;9.058;2022-12-18T06:40:27;-13.90;99.90
7411;DHT22;3747;48.628;9.058;2022-12-18T06:42:54;-14.00;99.90
7411;DHT22;3747;48.628;9.058;2022-12-18T06:45:20;-14.00;99.90
7411;DHT22;3747;48.628;9.058;2022-12-18T06:47:47;-14.00;99.90
7411;DHT22;3747;48.628;9.058;2022-12-18T06:50:16;-14.10;99.90
7411;DHT22;3747;48.628;9.058;2022-12-18T06:52:42;-14.10;99.90
7411;DHT22;3747;48.628;9.058;2022-12-18T06:55:10;-14.10;99.90
7411;DHT22;3747;48.628;9.058;2022-12-18T06:57:37;-14.00;99.90
7411;DHT22;3747;48.628;9.058;2022-12-18T07:00:06;-13.90;99.90
7411;DHT22;3747;48.628;9.058;2022-12-18T07:02:33;-13.90;99.90
7411;DHT22;3747;48.628;9.058;2022-12-18T07:05:00;-13.90;99.90
7411;DHT22;3747;48.628;9.058;2022-12-18T07:07:29;-13.90;99.90
7411;DHT22;3747;48.628;9.058;2022-12-18T07:09:55;-13.80;99.90
7411;DHT22;3747;48.628;9.058;2022-12-18T07:12:22;-13.60;99.90
7411;DHT22;3747;48.628;9.058;2022-12-18T07:14:49;-13.50;99.90
7411;DHT22;3747;48.628;9.058;2022-12-18T07:17:15;-13.40;99.90
7411;DHT22;3747;48.628;9.058;2022-12-18T07:19:42;-13.30;99.90
7411;DHT22;3747;48.628;9.058;2022-12-18T07:22:09;-13.30;99.90
7411;DHT22;3747;48.628;9.058;2022-12-18T07:24:37;-13.20;99.90
7411;DHT22;3747;48.628;9.058;2022-12-18T07:27:03;-13.10;99.90
7411;DHT22;3747;48.628;9.058;2022-12-18T07:29:30;-12.90;99.90
7411;DHT22;3747;48.628;9.058;2022-12-18T07:31:57;-12.70;99.90
7411;DHT22;3747;48.628;9.058;2022-12-18T07:34:24;-12.40;99.90
7411;DHT22;3747;48.628;9.058;2022-12-18T07:36:50;-12.10;99.90
7411;DHT22;3747;48.628;9.058;2022-12-18T07:39:17;-11.90;99.90
7411;DHT22;3747;48.628;9.058;2022-12-18T07:41:45;-11.70;99.90
7411;DHT22;3747;48.628;9.058;2022-12-18T07:44:32;-11.60;99.90
7411;DHT22;3747;48.628;9.058;2022-12-18T07:46:59;-11.30;99.90
7411;DHT22;3747;48.628;9.058;2022-12-18T07:49:25;-11.20;99.90
7411;DHT22;3747;48.628;9.058;2022-12-18T07:51:54;-11.20;99.90
7411;DHT22;3747;48.628;9.058;2022-12-18T07:54:21;-11.10;99.90
7411;DHT22;3747;48.628;9.058;2022-12-18T07:56:50;-11.10;99.90
7411;DHT22;3747;48.628;9.058;2022-12-18T07:59:17;-10.90;99.90
7411;DHT22;3747;48.628;9.058;2022-12-18T08:01:43;-10.60;99.90
7411;DHT22;3747;48.628;9.058;2022-12-18T08:04:10;-10.30;99.90
7411;DHT22;3747;48.628;9.058;2022-12-18T08:06:37;-9.80;99.90
7411;DHT22;3747;48.628;9.058;2022-12-18T08:09:04;-9.30;99.90
7411;DHT22;3747;48.628;9.058;2022-12-18T08:11:31;-8.70;99.90
7411;DHT22;3747;48.628;9.058;2022-12-18T08:13:59;-7.90;99.90
7411;DHT22;3747;48.628;9.058;2022-12-18T08:16:26;-7.30;99.90
7411;DHT22;3747;48.628;9.058;2022-12-18T08:18:54;-6.60;99.90
7411;DHT22;3747;48.628;9.058;2022-12-18T08:21:22;-6.10;99.90
7411;DHT22;3747;48.628;9.058;2022-12-18T08:23:50;-5.90;99.90
7411;DHT22;3747;48.628;9.058;2022-12-18T08:26:17;-5.50;99.90
7411;DHT22;3747;48.628;9.058;2022-12-18T08:28:44;-5.10;99.90
7411;DHT22;3747;48.628;9.058;2022-12-18T08:31:12;-4.70;99.90
7411;DHT22;3747;48.628;9.058;2022-12-18T08:33:39;-4.30;99.90
7411;DHT22;3747;48.628;9.058;2022-12-18T08:36:07;-3.90;99.90
7411;DHT22;3747;48.628;9.058;2022-12-18T08:38:34;-3.30;99.90
7411;DHT22;3747;48.628;9.058;2022-12-18T08:41:02;-3.00;99.90
7411;DHT22;3747;48.628;9.058;2022-12-18T08:43:29;-2.90;99.90
7411;DHT22;3747;48.628;9.058;2022-12-18T08:46:15;-2.80;99.90
7411;DHT22;3747;48.628;9.058;2022-12-18T08:48:42;-2.80;99.90
7411;DHT22;3747;48.628;9.058;2022-12-18T08:51:09;-2.60;99.90
7411;DHT22;3747;48.628;9.058;2022-12-18T08:53:36;-2.40;99.90
7411;DHT22;3747;48.628;9.058;2022-12-18T08:56:03;-2.50;99.90
7411;DHT22;3747;48.628;9.058;2022-12-18T08:58:30;-2.90;99.90
7411;DHT22;3747;48.628;9.058;2022-12-18T09:00:59;-3.10;99.90
7411;DHT22;3747;48.628;9.058;2022-12-18T09:03:28;-3.60;99.90
7411;DHT22;3747;48.628;9.058;2022-12-18T09:06:06;-3.70;99.90
7411;DHT22;3747;48.628;9.058;2022-12-18T09:08:32;-4.10;99.90
7411;DHT22;3747;48.628;9.058;2022-12-18T09:10:59;-4.50;99.90
7411;DHT22;3747;48.628;9.058;2022-12-18T09:13:26;-4.90;99.90
7411;DHT22;3747;48.628;9.058;2022-12-18T09:15:54;-5.10;99.90
7411;DHT22;3747;48.628;9.058;2022-12-18T09:18:22;-5.10;99.90
7411;DHT22;3747;48.628;9.058;2022-12-18T09:20:50;-5.00;99.90
7411;DHT22;3747;48.628;9.058;2022-12-18T09:23:18;-5.00;99.90
7411;DHT22;3747;48.628;9.058;2022-12-18T09:25:45;-5.00;99.90
7411;DHT22;3747;48.628;9.058;2022-12-18T09:28:14;-5.20;99.90
7411;DHT22;3747;48.628;9.058;2022-12-18T09:30:43;-5.30;99.90
7411;DHT22;3747;48.628;9.058;2022-12-18T09:33:10;-5.40;99.90
7411;DHT22;3747;48.628;9.058;2022-12-18T09:35:39;-5.40;99.90
7411;DHT22;3747;48.628;9.058;2022-12-18T09:38:08;-5.40;99.90
7411;DHT22;3747;48.628;9.058;2022-12-18T09:40:46;-5.50;99.90
7411;DHT22;3747;48.628;9.058;2022-12-18T09:43:17;-5.70;99.90
7411;DHT22;3747;48.628;9.058;2022-12-18T09:45:46;-5.70;99.90
7411;DHT22;3747;48.628;9.058;2022-12-18T09:48:20;-5.80;99.90
7411;DHT22;3747;48.628;9.058;2022-12-18T09:50:49;-5.70;99.90
7411;DHT22;3747;48.628;9.058;2022-12-18T09:53:22;-5.70;99.90
7411;DHT22;3747;48.628;9.058;2022-12-18T09:59:02;-5.60;99.90
7411;DHT22;3747;48.628;9.058;2022-12-18T10:01:39;-5.40;99.90
7411;DHT22;3747;48.628;9.058;2022-12-18T10:04:09;-5.30;99.90
7411;DHT22;3747;48.628;9.058;2022-12-18T10:06:38;-5.30;99.90
7411;DHT22;3747;48.628;9.058;2022-12-18T10:09:13;-5.20;99.90
7411;DHT22;3747;48.628;9.058;2022-12-18T10:11:48;-5.00;99.90
7411;DHT22;3747;48.628;9.058;2022-12-18T10:14:20;-5.00;99.90
7411;DHT22;3747;48.628;9.058;2022-12-18T10:16:56;-5.10;99.90
7411;DHT22;3747;48.628;9.058;2022-12-18T10:19:51;-5.20;99.90
7411;DHT22;3747;48.628;9.058;2022-12-18T10:22:50;-5.30;99.90
7411;DHT22;3747;48.628;9.058;2022-12-18T10:25:26;-5.10;99.90
7411;DHT22;3747;48.628;9.058;2022-12-18T10:27:58;-4.90;99.90
7411;DHT22;3747;48.628;9.058;2022-12-18T10:30:33;-4.90;99.90
7411;DHT22;3747;48.628;9.058;2022-12-18T10:33:00;-4.90;99.90
7411;DHT22;3747;48.628;9.058;2022-12-18T10:35:28;-4.80;99.90
7411;DHT22;3747;48.628;9.058;2022-12-18T10:38:04;-4.90;99.90
7411;DHT22;3747;48.628;9.058;2022-12-18T10:43:39;-4.70;99.90
7411;DHT22;3747;48.628;9.058;2022-12-18T10:46:15;-4.50;99.90
7411;DHT22;3747;48.628;9.058;2022-12-18T10:48:53;-4.30;99.90
7411;DHT22;3747;48.628;9.058;2022-12-18T10:51:21;-4.10;99.90
7411;DHT22;3747;48.628;9.058;2022-12-18T10:53:54;-4.10;99.90
7411;DHT22;3747;48.628;9.058;2022-12-18T10:56:22;-4.00;99.90
7411;DHT22;3747;48.628;9.058;2022-12-18T10:58:58;-3.90;99.90
7411;DHT22;3747;48.628;9.058;2022-12-18T11:01:25;-3.80;99.90
7411;DHT22;3747;48.628;9.058;2022-12-18T11:04:01;-3.80;99.90
7411;DHT22;3747;48.628;9.058;2022-12-18T11:06:29;-3.80;99.90
7411;DHT22;3747;48.628;9.058;2022-12-18T11:08:59;-3.80;99.90
7411;DHT22;3747;48.628;9.058;2022-12-18T11:11:26;-3.80;99.90
7411;DHT22;3747;48.628;9.058;2022-12-18T11:14:03;-3.70;99.90
7411;DHT22;3747;48.628;9.058;2022-12-18T11:16:33;-3.70;99.90
7411;DHT22;3747;48.628;9.058;2022-12-18T11:19:17;-3.70;99.90
7411;DHT22;3747;48.628;9.058;2022-12-18T11:21:46;-3.60;99.90
7411;DHT22;3747;48.628;9.058;2022-12-18T11:24:20;-3.60;99.90
7411;DHT22;3747;48.628;9.058;2022-12-18T11:26:49;-3.70;99.90
7411;DHT22;3747;48.628;9.058;2022-12-18T11:29:22;-3.70;99.90
7411;DHT22;3747;48.628;9.058;2022-12-18T11:35:16;-3.60;99.90
7411;DHT22;3747;48.628;9.058;2022-12-18T11:38:06;-3.60;99.90
7411;DHT22;3747;48.628;9.058;2022-12-18T11:40:39;-3.50;99.90
7411;DHT22;3747;48.628;9.058;2022-12-18T11:43:11;-3.50;99.90
7411;DHT22;3747;48.628;9.058;2022-12-18T11:45:47;-3.40;99.90
7411;DHT22;3747;48.628;9.058;2022-12-18T11:48:18;-3.30;99.90
7411;DHT22;3747;48.628;9.058;2022-12-18T11:50:58;-3.30;99.90
7411;DHT22;3747;48.628;9.058;2022-12-18T11:53:26;-3.10;99.90
7411;DHT22;3747;48.628;9.058;2022-12-18T11:56:02;-3.10;99.90
7411;DHT22;3747;48.628;9.058;2022-12-18T11:58:44;-3.00;99.90
7411;DHT22;3747;48.628;9.058;2022-12-18T12:01:23;-3.00;99.90
7411;DHT22;3747;48.628;9.058;2022-12-18T12:06:57;-2.90;99.90
7411;DHT22;3747;48.628;9.058;2022-12-18T12:09:35;-2.90;99.90
7411;DHT22;3747;48.628;9.058;2022-12-18T12:12:19;-2.90;99.90
7411;DHT22;3747;48.628;9.058;2022-12-18T12:14:55;-2.80;99.90
7411;DHT22;3747;48.628;9.058;2022-12-18T12:17:32;-2.70;99.90
7411;DHT22;3747;48.628;9.058;2022-12-18T12:20:08;-2.50;99.90
7411;DHT22;3747;48.628;9.058;2022-12-18T12:22:49;-2.40;99.90
7411;DHT22;3747;48.628;9.058;2022-12-18T12:25:31;-2.20;99.90
7411;DHT22;3747;48.628;9.058;2022-12-18T12:28:11;-2.20;99.90
7411;DHT22;3747;48.628;9.058;2022-12-18T12:30:48;-2.00;99.90
7411;DHT22;3747;48.628;9.058;2022-12-18T12:33:29;-1.80;99.90
7411;DHT22;3747;48.628;9.058;2022-12-18T12:36:07;-1.70;99.90
7411;DHT22;3747;48.628;9.058;2022-12-18T12:38:40;-1.70;99.90
7411;DHT22;3747;48.628;9.058;2022-12-18T12:41:11;-1.60;99.90
7411;DHT22;3747;48.628;9.058;2022-12-18T12:44:02;-1.60;99.90
7411;DHT22;3747;48.628;9.058;2022-12-18T12:46:32;-1.50;99.90
7411;DHT22;3747;48.628;9.058;2022-12-18T12:49:02;-1.40;99.90
7411;DHT22;3747;48.628;9.058;2022-12-18T12:51:32;-1.40;99.90
7411;DHT22;3747;48.628;9.058;2022-12-18T12:54:02;-1.40;99.90
7411;DHT22;3747;48.628;9.058;2022-12-18T12:56:38;-1.60;99.90
7411;DHT22;3747;48.628;9.058;2022-12-18T12:59:13;-1.70;99.90
7411;DHT22;3747;48.628;9.058;2022-12-18T13:01:46;-1.80;99.90
7411;DHT22;3747;48.628;9.058;2022-12-18T13:04:23;-1.70;99.90
7411;DHT22;3747;48.628;9.058;2022-12-18T13:06:55;-1.60;99.90
7411;DHT22;3747;48.628;9.058;2022-12-18T13:09:22;-1.60;99.90
7411;DHT22;3747;48.628;9.058;2022-12-18T13:11:49;-1.70;99.90
7411;DHT22;3747;48.628;9.058;2022-12-18T13:14:42;-1.70;99.90
7411;DHT22;3747;48.628;9.058;2022-12-18T13:17:29;-1.70;99.90
7411;DHT22;3747;48.628;9.058;2022-12-18T13:20:10;-1.50;99.90
7411;DHT22;3747;48.628;9.058;2022-12-18T13:22:40;-1.50;99.90
7411;DHT22;3747;48.628;9.058;2022-12-18T13:28:11;-1.60;99.90
7411;DHT22;3747;48.628;9.058;2022-12-18T13:30:50;-1.60;99.90
7411;DHT22;3747;48.628;9.058;2022-12-18T13:33:48;-1.60;99.90
7411;DHT22;3747;48.628;9.058;2022-12-18T13:36:27;-1.70;99.90
7411;DHT22;3747;48.628;9.058;2022-12-18T13:39:30;-1.90;99.90
7411;DHT22;3747;48.628;9.058;2022-12-18T13:45:59;-2.10;99.90
7411;DHT22;3747;48.628;9.058;2022-12-18T13:48:27;-2.30;99.90
7411;DHT22;3747;48.628;9.058;2022-12-18T13:50:59;-2.30;99.90
7411;DHT22;3747;48.628;9.058;2022-12-18T13:53:39;-2.30;99.90
7411;DHT22;3747;48.628;9.058;2022-12-18T13:56:08;-2.30;99.90
7411;DHT22;3747;48.628;9.058;2022-12-18T13:58:35;-2.30;99.90
7411;DHT22;3747;48.628;9.058;2022-12-18T14:01:02;-2.40;99.90
7411;DHT22;3747;48.628;9.058;2022-12-18T14:03:30;-2.40;99.90
7411;DHT22;3747;48.628;9.058;2022-12-18T14:06:00;-2.60;99.90
7411;DHT22;3747;48.628;9.058;2022-12-18T14:08:37;-2.70;99.90
7411;DHT22;3747;48.628;9.058;2022-12-18T14:11:05;-2.80;99.90
7411;DHT22;3747;48.628;9.058;2022-12-18T14:13:36;-2.80;99.90
7411;DHT22;3747;48.628;9.058;2022-12-18T14:16:05;-2.90;99.90
7411;DHT22;3747;48.628;9.058;2022-12-18T14:18:38;-3.00;99.90
7411;DHT22;3747;48.628;9.058;2022-12-18T14:21:18;-3.10;99.90
7411;DHT22;3747;48.628;9.058;2022-12-18T14:23:47;-3.10;99.90
7411;DHT22;3747;48.628;9.058;2022-12-18T14:26:25;-3.20;99.90
7411;DHT22;3747;48.628;9.058;2022-12-18T14:28:54;-3.20;99.90
7411;DHT22;3747;48.628;9.058;2022-12-18T14:31:23;-3.30;99.90
7411;DHT22;3747;48.628;9.058;2022-12-18T14:33:50;-3.30;99.90
7411;DHT22;3747;48.628;9.058;2022-12-18T14:36:19;-3.40;99.90
7411;DHT22;3747;48.628;9.058;2022-12-18T14:38:58;-3.50;99.90
7411;DHT22;3747;48.628;9.058;2022-12-18T14:41:26;-3.50;99.90
7411;DHT22;3747;48.628;9.058;2022-12-18T14:43:54;-3.50;99.90
7411;DHT22;3747;48.628;9.058;2022-12-18T14:46:34;-3.50;99.90
7411;DHT22;3747;48.628;9.058;2022-12-18T14:49:05;-3.60;99.90
7411;DHT22;3747;48.628;9.058;2022-12-18T14:51:47;-3.60;99.90
7411;DHT22;3747;48.628;9.058;2022-12-18T14:54:18;-3.70;99.90
7411;DHT22;3747;48.628;9.058;2022-12-18T14:56:47;-3.90;99.90
7411;DHT22;3747;48.628;9.058;2022-12-18T14:59:16;-4.00;99.90
7411;DHT22;3747;48.628;9.058;2022-12-18T15:01:46;-4.10;99.90
7411;DHT22;3747;48.628;9.058;2022-12-18T15:04:27;-4.30;99.90
7411;DHT22;3747;48.628;9.058;2022-12-18T15:07:11;-4.40;99.90
7411;DHT22;3747;48.628;9.058;2022-12-18T15:10:03;-4.50;99.90
7411;DHT22;3747;48.628;9.058;2022-12-18T15:12:34;-4.50;99.90
7411;DHT22;3747;48.628;9.058;2022-12-18T15:15:01;-4.60;99.90
7411;DHT22;3747;48.628;9.058;2022-12-18T15:17:28;-4.60;99.90
7411;DHT22;3747;48.628;9.058;2022-12-18T15:19:59;-4.70;99.90
7411;DHT22;3747;48.628;9.058;2022-12-18T15:22:29;-4.80;99.90
7411;DHT22;3747;48.628;9.058;2022-12-18T15:24:57;-4.90;99.90
7411;DHT22;3747;48.628;9.058;2022-12-18T15:27:46;-5.00;99.90
7411;DHT22;3747;48.628;9.058;2022-12-18T15:30:19;-5.10;99.90
7411;DHT22;3747;48.628;9.058;2022-12-18T15:33:22;-5.10;99.90
7411;DHT22;3747;48.628;9.058;2022-12-18T15:35:56;-5.20;99.90
7411;DHT22;3747;48.628;9.058;2022-12-18T15:38:22;-5.20;99.90
7411;DHT22;3747;48.628;9.058;2022-12-18T15:40:49;-5.30;99.90
7411;DHT22;3747;48.628;9.058;2022-12-18T15:43:18;-5.40;99.90
7411;DHT22;3747;48.628;9.058;2022-12-18T15:46:05;-5.50;99.90
7411;DHT22;3747;48.628;9.058;2022-12-18T15:48:33;-5.50;99.90
7411;DHT22;3747;48.628;9.058;2022-12-18T15:51:08;-5.40;99.90
7411;DHT22;3747;48.628;9.058;2022-12-18T15:53:35;-5.50;99.90
7411;DHT22;3747;48.628;9.058;2022-12-18T15:56:02;-5.50;99.90
7411;DHT22;3747;48.628;9.058;2022-12-18T15:58:49;-5.50;99.90
7411;DHT22;3747;48.628;9.058;2022-12-18T16:01:29;-5.50;99.90
7411;DHT22;3747;48.628;9.058;2022-12-18T16:03:56;-5.50;99.90
7411;DHT22;3747;48.628;9.058;2022-12-18T16:06:23;-5.60;99.90
7411;DHT22;3747;48.628;9.058;2022-12-18T16:08:50;-5.60;99.90
7411;DHT22;3747;48.628;9.058;2022-12-18T16:11:31;-5.60;99.90
7411;DHT22;3747;48.628;9.058;2022-12-18T16:14:15;-5.50;99.90
7411;DHT22;3747;48.628;9.058;2022-12-18T16:16:42;-5.50;99.90
7411;DHT22;3747;48.628;9.058;2022-12-18T16:19:09;-5.50;99.90
7411;DHT22;3747;48.628;9.058;2022-12-18T16:21:35;-5.40;99.90
7411;DHT22;3747;48.628;9.058;2022-12-18T16:24:02;-5.30;99.90
7411;DHT22;3747;48.628;9.058;2022-12-18T16:26:32;-5.20;99.90
7411;DHT22;3747;48.628;9.058;2022-12-18T16:28:59;-5.10;99.90
7411;DHT22;3747;48.628;9.058;2022-12-18T16:31:27;-5.00;99.90
7411;DHT22;3747;48.628;9.058;2022-12-18T16:34:12;-5.00;99.90
7411;DHT22;3747;48.628;9.058;2022-12-18T16:36:39;-5.00;99.90
7411;DHT22;3747;48.628;9.058;2022-12-18T16:39:06;-5.00;99.90